createdAt,value
2023-03-07T00:00:19.714Z,3.86
2023-03-07T00:01:01.539Z,3.96
2023-03-07T00:01:43.189Z,3.79
2023-03-07T00:02:25.083Z,3.86
2023-03-07T00:03:06.872Z,3.92
2023-03-07T00:03:48.588Z,3.85
2023-03-07T00:04:30.642Z,3.94
2023-03-07T00:05:14.836Z,3.93
2023-03-07T00:06:08.714Z,3.78
2023-03-07T00:06:50.353Z,3.87
2023-03-07T00:07:32.114Z,3.83
2023-03-07T00:08:13.816Z,3.74
2023-03-07T00:08:58.760Z,3.39
2023-03-07T00:09:40.405Z,3.77
2023-03-07T00:10:22.094Z,3.81
2023-03-07T00:11:08.581Z,3.81
2023-03-07T00:11:50.697Z,3.66
2023-03-07T00:12:32.335Z,3.80
2023-03-07T00:13:13.955Z,3.80
2023-03-07T00:13:55.952Z,3.53
2023-03-07T00:14:37.688Z,3.52
2023-03-07T00:15:19.349Z,3.90
2023-03-07T00:16:05.756Z,3.77
2023-03-07T00:16:51.215Z,3.90
2023-03-07T00:17:35.154Z,3.51
2023-03-07T00:18:16.800Z,3.76
2023-03-07T00:18:58.435Z,3.83
2023-03-07T00:19:44.819Z,3.74
2023-03-07T00:20:26.455Z,3.27
2023-03-07T00:21:13.391Z,3.80
2023-03-07T00:21:54.998Z,3.78
2023-03-07T00:22:37.674Z,3.77
2023-03-07T00:23:19.317Z,3.77
2023-03-07T00:24:01.050Z,3.68
2023-03-07T00:24:42.780Z,3.80
2023-03-07T00:25:24.363Z,3.82
2023-03-07T00:26:11.776Z,3.42
2023-03-07T00:26:54.621Z,3.82
2023-03-07T00:27:36.720Z,3.53
2023-03-07T00:28:18.330Z,3.40
2023-03-07T00:28:59.931Z,3.70
2023-03-07T00:29:41.532Z,3.64
2023-03-07T00:30:23.111Z,3.74
2023-03-07T00:31:07.442Z,3.82
2023-03-07T00:31:49.190Z,3.87
2023-03-07T00:32:31.095Z,3.93
2023-03-07T00:33:12.867Z,3.99
2023-03-07T00:33:54.497Z,3.88
2023-03-07T00:34:36.158Z,4.02
2023-03-07T00:35:17.937Z,3.95
2023-03-07T00:36:05.272Z,3.98
2023-03-07T00:36:46.959Z,3.89
2023-03-07T00:37:30.735Z,3.52
2023-03-07T00:38:12.400Z,3.83
2023-03-07T00:38:54.524Z,3.77
2023-03-07T00:39:36.102Z,3.76
2023-03-07T00:40:18.020Z,3.75
2023-03-07T00:41:07.812Z,3.72
2023-03-07T00:41:49.596Z,3.77
2023-03-07T00:42:31.174Z,3.72
2023-03-07T00:43:12.738Z,3.75
2023-03-07T00:43:55.948Z,3.75
2023-03-07T00:44:37.705Z,3.75
2023-03-07T00:45:19.339Z,3.38
2023-03-07T00:46:01.682Z,3.56
2023-03-07T00:46:43.359Z,3.67
2023-03-07T00:47:25.029Z,3.65
2023-03-07T00:48:06.767Z,3.69
2023-03-07T00:48:48.764Z,3.53
2023-03-07T00:49:32.530Z,3.55
2023-03-07T00:50:14.391Z,3.67
2023-03-07T00:50:56.770Z,3.62
2023-03-07T00:51:39.968Z,3.53
2023-03-07T00:52:21.945Z,3.62
2023-03-07T00:53:03.840Z,3.50
2023-03-07T00:53:46.351Z,3.59
2023-03-07T00:54:28.056Z,3.55
2023-03-07T00:55:10.482Z,3.58
2023-03-07T00:56:05.494Z,3.56
2023-03-07T00:56:47.173Z,3.49
2023-03-07T00:57:29.103Z,3.44
2023-03-07T00:58:10.732Z,3.47
2023-03-07T00:58:52.733Z,3.43
2023-03-07T00:59:34.526Z,3.45
2023-03-07T01:00:16.182Z,3.08
2023-03-07T01:00:58.879Z,3.42
2023-03-07T01:01:41.648Z,3.44
2023-03-07T01:02:23.296Z,3.43
2023-03-07T01:03:04.979Z,3.33
2023-03-07T01:03:49.657Z,3.33
2023-03-07T01:04:31.482Z,3.25
2023-03-07T01:05:13.331Z,3.14
2023-03-07T01:05:55.643Z,3.44
2023-03-07T01:06:37.951Z,3.45
2023-03-07T01:07:19.699Z,3.45
2023-03-07T01:08:01.473Z,3.40
2023-03-07T01:08:44.006Z,3.36
2023-03-07T01:09:26.921Z,3.48
2023-03-07T01:10:09.373Z,3.28
2023-03-07T01:10:51.209Z,3.41
2023-03-07T01:11:34.362Z,3.38
2023-03-07T01:12:16.096Z,3.25
2023-03-07T01:12:57.750Z,3.35
2023-03-07T01:13:39.856Z,3.35
2023-03-07T01:14:21.539Z,3.32
2023-03-07T01:15:05.265Z,3.21
2023-03-07T01:15:47.093Z,3.07
2023-03-07T01:16:31.391Z,3.19
2023-03-07T01:17:13.105Z,3.12
2023-03-07T01:17:54.799Z,3.09
2023-03-07T01:18:37.005Z,2.65
2023-03-07T01:19:20.844Z,2.94
2023-03-07T01:20:06.988Z,3.07
2023-03-07T01:20:49.754Z,3.03
2023-03-07T01:21:34.289Z,3.08
2023-03-07T01:22:18.133Z,3.07
2023-03-07T01:23:00.214Z,2.89
2023-03-07T01:23:42.566Z,3.03
2023-03-07T01:24:25.578Z,2.86
2023-03-07T01:25:08.050Z,2.94
2023-03-07T01:25:49.936Z,2.91
2023-03-07T01:26:33.136Z,2.91
2023-03-07T01:27:15.124Z,3.14
2023-03-07T01:27:57.053Z,3.14
2023-03-07T01:28:43.230Z,3.15
2023-03-07T01:29:25.428Z,3.02
2023-03-07T01:30:08.366Z,2.69
2023-03-07T01:30:59.806Z,3.05
2023-03-07T01:31:42.238Z,3.05
2023-03-07T01:32:24.263Z,2.60
2023-03-07T01:33:05.914Z,3.09
2023-03-07T01:33:48.424Z,2.68
2023-03-07T01:34:30.544Z,3.03
2023-03-07T01:35:12.189Z,2.99
2023-03-07T01:35:54.460Z,2.89
2023-03-07T01:36:37.308Z,2.88
2023-03-07T01:37:19.747Z,2.88
2023-03-07T01:38:01.740Z,2.75
2023-03-07T01:38:43.407Z,2.78
2023-03-07T01:39:26.234Z,2.63
2023-03-07T01:40:12.586Z,2.78
2023-03-07T01:40:54.628Z,2.68
2023-03-07T01:41:37.442Z,2.74
2023-03-07T01:42:21.811Z,2.72
2023-03-07T01:43:25.796Z,2.72
2023-03-07T01:44:19.805Z,2.72
2023-03-07T01:45:33.289Z,2.58
2023-03-07T01:46:18.234Z,2.67
2023-03-07T01:47:03.879Z,2.67
2023-03-07T01:48:02.851Z,2.55
2023-03-07T01:48:51.099Z,2.70
2023-03-07T01:49:34.087Z,2.67
2023-03-07T01:50:19.147Z,2.69
2023-03-07T01:51:01.576Z,2.68
2023-03-07T01:51:49.306Z,2.51
2023-03-07T01:52:35.553Z,2.66
2023-03-07T01:53:21.554Z,2.62
2023-03-07T01:54:06.166Z,2.29
2023-03-07T01:54:52.471Z,2.67
2023-03-07T01:55:37.359Z,2.66
2023-03-07T01:56:26.358Z,2.50
2023-03-07T01:57:08.438Z,2.64
2023-03-07T01:57:52.600Z,2.52
2023-03-07T01:58:38.065Z,2.66
2023-03-07T01:59:34.621Z,2.66
2023-03-07T02:00:25.404Z,2.60
2023-03-07T02:01:10.047Z,2.69
2023-03-07T02:01:52.025Z,2.69
2023-03-07T02:02:35.221Z,2.70
2023-03-07T02:03:26.140Z,2.75
2023-03-07T02:04:28.253Z,2.82
2023-03-07T02:05:19.286Z,2.88
2023-03-07T02:06:04.034Z,2.88
2023-03-07T02:06:47.099Z,2.78
2023-03-07T02:07:35.155Z,2.88
2023-03-07T02:08:20.073Z,2.89
2023-03-07T02:09:03.357Z,2.83
2023-03-07T02:09:48.062Z,2.92
2023-03-07T02:10:30.995Z,2.89
2023-03-07T02:11:12.994Z,2.86
2023-03-07T02:11:56.757Z,2.83
2023-03-07T02:12:40.226Z,2.82
2023-03-07T02:13:21.914Z,2.50
2023-03-07T02:14:03.527Z,2.70
2023-03-07T02:14:48.461Z,2.67
2023-03-07T02:15:30.145Z,2.70
2023-03-07T02:16:12.083Z,2.42
2023-03-07T02:16:54.246Z,2.73
2023-03-07T02:17:36.346Z,2.75
2023-03-07T02:18:24.241Z,2.70
2023-03-07T02:19:47.517Z,2.58
2023-03-07T02:20:52.014Z,2.74
2023-03-07T02:21:44.017Z,2.73
2023-03-07T02:22:26.240Z,2.71
2023-03-07T02:23:13.682Z,2.71
2023-03-07T02:24:14.384Z,2.67
2023-03-07T02:25:01.003Z,2.66
2023-03-07T02:25:51.067Z,2.65
2023-03-07T02:26:32.713Z,2.65
2023-03-07T02:27:15.074Z,2.24
2023-03-07T02:27:58.931Z,2.58
2023-03-07T02:28:42.583Z,2.59
2023-03-07T02:29:25.098Z,2.64
2023-03-07T02:30:08.193Z,2.54
2023-03-07T02:30:55.442Z,2.68
2023-03-07T02:31:37.827Z,2.68
2023-03-07T02:32:19.632Z,2.67
2023-03-07T02:33:01.358Z,2.61
2023-03-07T02:33:43.134Z,2.66
2023-03-07T02:34:29.263Z,2.37
2023-03-07T02:35:23.814Z,2.67
2023-03-07T02:36:11.301Z,2.63
2023-03-07T02:37:05.021Z,2.59
2023-03-07T02:37:52.149Z,2.63
2023-03-07T02:38:38.139Z,2.55
2023-03-07T02:39:22.782Z,2.61
2023-03-07T02:40:11.721Z,2.59
2023-03-07T02:40:55.469Z,2.34
2023-03-07T02:41:39.098Z,2.50
2023-03-07T02:42:31.070Z,2.43
2023-03-07T02:43:25.767Z,2.41
2023-03-07T02:44:07.435Z,2.41
2023-03-07T02:44:57.307Z,1.80
2023-03-07T02:45:39.821Z,2.37
2023-03-07T02:46:21.502Z,2.37
2023-03-07T02:47:03.289Z,2.36
2023-03-07T02:47:46.142Z,2.36
2023-03-07T02:48:31.029Z,2.31
2023-03-07T02:49:13.818Z,2.32
2023-03-07T02:49:55.764Z,2.26
2023-03-07T02:50:37.588Z,2.31
2023-03-07T02:51:19.211Z,2.32
2023-03-07T02:52:02.721Z,2.27
2023-03-07T02:52:44.881Z,1.92
2023-03-07T02:53:27.148Z,2.36
2023-03-07T02:54:09.100Z,2.36
2023-03-07T02:54:50.750Z,2.35
2023-03-07T02:55:33.603Z,2.33
2023-03-07T02:56:17.985Z,2.22
2023-03-07T02:56:59.681Z,2.38
2023-03-07T02:57:41.280Z,2.41
2023-03-07T02:58:22.984Z,2.43
2023-03-07T02:59:04.797Z,2.43
2023-03-07T02:59:46.767Z,2.43
2023-03-07T03:00:28.564Z,2.46
2023-03-07T03:01:10.978Z,2.46
2023-03-07T03:01:52.816Z,2.48
2023-03-07T03:02:35.046Z,2.07
2023-03-07T03:03:16.899Z,2.62
2023-03-07T03:03:59.065Z,2.65
2023-03-07T03:04:40.779Z,2.67
2023-03-07T03:05:24.046Z,2.63
2023-03-07T03:06:07.323Z,2.48
2023-03-07T03:06:50.077Z,2.65
2023-03-07T03:07:31.748Z,2.56
2023-03-07T03:08:13.487Z,2.59
2023-03-07T03:08:55.196Z,2.25
2023-03-07T03:09:36.808Z,2.58
2023-03-07T03:10:18.983Z,2.55
2023-03-07T03:11:00.983Z,1.29
2023-03-07T03:11:43.798Z,2.52
2023-03-07T03:12:25.731Z,2.53
2023-03-07T03:13:07.452Z,2.44
2023-03-07T03:13:49.117Z,2.40
2023-03-07T03:14:30.784Z,2.42
2023-03-07T03:15:12.476Z,2.54
2023-03-07T03:15:57.834Z,2.61
2023-03-07T03:16:40.198Z,2.23
2023-03-07T03:17:21.930Z,2.64
2023-03-07T03:18:03.596Z,2.50
2023-03-07T03:18:45.624Z,2.50
2023-03-07T03:19:29.092Z,2.60
2023-03-07T03:20:12.923Z,2.51
2023-03-07T03:20:54.602Z,2.63
2023-03-07T03:21:36.224Z,2.62
2023-03-07T03:22:17.920Z,2.62
2023-03-07T03:23:02.074Z,2.64
2023-03-07T03:23:44.071Z,2.73
2023-03-07T03:24:25.797Z,2.63
2023-03-07T03:25:10.662Z,2.80
2023-03-07T03:26:01.253Z,2.73
2023-03-07T03:26:45.685Z,2.79
2023-03-07T03:27:28.001Z,2.78
2023-03-07T03:28:09.694Z,2.78
2023-03-07T03:28:54.272Z,2.65
2023-03-07T03:29:36.322Z,2.76
2023-03-07T03:30:19.508Z,2.72
2023-03-07T03:31:04.099Z,2.74
2023-03-07T03:31:46.477Z,2.65
2023-03-07T03:32:28.191Z,2.71
2023-03-07T03:33:09.803Z,2.72
2023-03-07T03:33:52.635Z,2.56
2023-03-07T03:34:34.417Z,2.73
2023-03-07T03:35:16.150Z,2.58
2023-03-07T03:36:00.715Z,2.69
2023-03-07T03:36:42.511Z,2.71
2023-03-07T03:37:25.248Z,2.72
2023-03-07T03:38:07.330Z,2.62
2023-03-07T03:38:49.354Z,2.72
2023-03-07T03:39:30.967Z,2.73
2023-03-07T03:40:14.712Z,2.54
2023-03-07T03:40:57.654Z,2.59
2023-03-07T03:41:39.273Z,2.68
2023-03-07T03:42:20.917Z,2.73
2023-03-07T03:43:03.010Z,2.74
2023-03-07T03:43:44.717Z,2.75
2023-03-07T03:44:26.495Z,2.78
2023-03-07T03:45:10.017Z,2.41
2023-03-07T03:45:56.107Z,2.70
2023-03-07T03:46:39.001Z,2.58
2023-03-07T03:47:20.964Z,2.58
2023-03-07T03:48:02.697Z,2.76
2023-03-07T03:48:44.701Z,2.76
2023-03-07T03:49:27.251Z,2.67
2023-03-07T03:50:10.656Z,2.81
2023-03-07T03:51:04.884Z,2.83
2023-03-07T03:51:46.601Z,2.81
2023-03-07T03:52:28.489Z,2.83
2023-03-07T03:53:10.058Z,2.70
2023-03-07T03:53:52.064Z,2.69
2023-03-07T03:54:36.064Z,2.76
2023-03-07T03:55:18.106Z,2.80
2023-03-07T03:56:05.909Z,2.82
2023-03-07T03:56:47.659Z,2.73
2023-03-07T03:57:29.330Z,2.86
2023-03-07T03:58:11.158Z,2.78
2023-03-07T03:58:55.359Z,2.79
2023-03-07T03:59:37.067Z,2.48
2023-03-07T04:00:21.092Z,2.84
2023-03-07T04:01:07.581Z,2.80
2023-03-07T04:01:49.665Z,2.79
2023-03-07T04:02:34.048Z,2.84
2023-03-07T04:03:15.877Z,2.86
2023-03-07T04:03:58.576Z,2.79
2023-03-07T04:04:40.245Z,2.86
2023-03-07T04:05:22.039Z,2.91
2023-03-07T04:06:05.803Z,2.71
2023-03-07T04:06:48.267Z,2.89
2023-03-07T04:07:29.870Z,2.95
2023-03-07T04:08:11.511Z,2.95
2023-03-07T04:08:54.293Z,2.82
2023-03-07T04:09:35.886Z,2.97
2023-03-07T04:10:19.395Z,2.98
2023-03-07T04:11:01.248Z,2.98
2023-03-07T04:11:42.948Z,2.98
2023-03-07T04:12:25.100Z,2.96
2023-03-07T04:13:06.776Z,2.95
2023-03-07T04:13:48.904Z,2.94
2023-03-07T04:14:30.610Z,2.95
2023-03-07T04:15:12.539Z,2.94
2023-03-07T04:15:57.190Z,2.88
2023-03-07T04:16:39.167Z,2.73
2023-03-07T04:17:20.885Z,2.92
2023-03-07T04:18:02.609Z,2.88
2023-03-07T04:18:44.749Z,2.92
2023-03-07T04:19:27.030Z,2.89
2023-03-07T04:20:17.275Z,2.83
2023-03-07T04:20:58.910Z,2.92
2023-03-07T04:21:41.050Z,2.90
2023-03-07T04:22:23.147Z,2.93
2023-03-07T04:23:04.842Z,2.87
2023-03-07T04:23:49.502Z,2.94
2023-03-07T04:24:31.199Z,2.93
2023-03-07T04:25:12.942Z,2.85
2023-03-07T04:25:59.655Z,2.93
2023-03-07T04:26:42.125Z,2.93
2023-03-07T04:27:24.500Z,2.93
2023-03-07T04:28:06.218Z,2.72
2023-03-07T04:28:51.447Z,2.57
2023-03-07T04:29:40.734Z,2.95
2023-03-07T04:30:32.827Z,2.94
2023-03-07T04:31:20.246Z,2.94
2023-03-07T04:32:02.278Z,2.92
2023-03-07T04:32:44.082Z,2.95
2023-03-07T04:33:27.338Z,2.94
2023-03-07T04:34:09.036Z,2.86
2023-03-07T04:34:50.701Z,2.92
2023-03-07T04:35:32.379Z,2.89
2023-03-07T04:36:19.004Z,2.93
2023-03-07T04:37:00.652Z,2.86
2023-03-07T04:37:42.215Z,2.88
2023-03-07T04:38:23.848Z,2.99
2023-03-07T04:39:05.595Z,3.02
2023-03-07T04:39:48.660Z,2.95
2023-03-07T04:40:30.519Z,2.72
2023-03-07T04:41:14.609Z,3.03
2023-03-07T04:41:56.428Z,3.03
2023-03-07T04:42:38.871Z,3.03
2023-03-07T04:43:21.756Z,3.03
2023-03-07T04:44:03.406Z,3.02
2023-03-07T04:44:45.027Z,3.04
2023-03-07T04:45:27.248Z,3.03
2023-03-07T04:46:10.212Z,2.91
2023-03-07T04:46:51.858Z,3.05
2023-03-07T04:47:33.516Z,3.07
2023-03-07T04:48:15.511Z,3.07
2023-03-07T04:48:57.220Z,2.99
2023-03-07T04:49:39.466Z,2.96
2023-03-07T04:50:22.228Z,2.84
2023-03-07T04:51:04.820Z,3.10
2023-03-07T04:51:46.377Z,2.96
2023-03-07T04:52:30.233Z,3.11
2023-03-07T04:53:11.831Z,3.10
2023-03-07T04:53:53.543Z,2.72
2023-03-07T04:54:35.261Z,3.00
2023-03-07T04:55:18.294Z,2.79
2023-03-07T04:56:02.606Z,3.12
2023-03-07T04:56:45.219Z,3.18
2023-03-07T04:57:27.017Z,3.01
2023-03-07T04:58:12.888Z,3.16
2023-03-07T04:58:55.297Z,3.13
2023-03-07T04:59:39.207Z,3.17
2023-03-07T05:00:21.240Z,3.16
2023-03-07T05:01:05.154Z,3.19
2023-03-07T05:01:46.844Z,3.16
2023-03-07T05:02:28.657Z,3.12
2023-03-07T05:03:11.580Z,3.19
2023-03-07T05:03:53.227Z,3.18
2023-03-07T05:04:35.925Z,3.06
2023-03-07T05:05:17.803Z,3.22
2023-03-07T05:06:17.429Z,3.22
2023-03-07T05:07:04.708Z,3.23
2023-03-07T05:07:46.344Z,3.27
2023-03-07T05:08:28.562Z,3.12
2023-03-07T05:09:10.195Z,3.25
2023-03-07T05:09:51.794Z,3.24
2023-03-07T05:10:34.679Z,3.24
2023-03-07T05:11:18.413Z,3.24
2023-03-07T05:12:00.044Z,3.11
2023-03-07T05:12:41.702Z,3.24
2023-03-07T05:13:25.512Z,3.25
2023-03-07T05:14:07.437Z,3.07
2023-03-07T05:14:49.165Z,3.14
2023-03-07T05:15:31.366Z,3.24
2023-03-07T05:16:13.189Z,3.18
2023-03-07T05:16:54.911Z,3.21
2023-03-07T05:17:37.065Z,3.28
2023-03-07T05:18:18.805Z,3.28
2023-03-07T05:19:00.996Z,3.26
2023-03-07T05:19:45.279Z,3.31
2023-03-07T05:20:29.585Z,2.84
2023-03-07T05:21:11.276Z,3.19
2023-03-07T05:21:54.229Z,3.34
2023-03-07T05:22:35.934Z,3.25
2023-03-07T05:23:19.007Z,3.45
2023-03-07T05:24:02.804Z,3.39
2023-03-07T05:24:45.777Z,3.50
2023-03-07T05:25:28.568Z,3.50
2023-03-07T05:26:10.651Z,3.51
2023-03-07T05:26:52.555Z,3.47
2023-03-07T05:27:34.220Z,3.51
2023-03-07T05:28:16.915Z,3.52
2023-03-07T05:28:59.057Z,3.52
2023-03-07T05:29:40.772Z,3.49
2023-03-07T05:30:22.371Z,3.50
2023-03-07T05:31:04.287Z,3.43
2023-03-07T05:31:46.582Z,3.47
2023-03-07T05:32:28.370Z,3.29
2023-03-07T05:33:10.117Z,3.43
2023-03-07T05:33:52.703Z,3.05
2023-03-07T05:34:34.373Z,3.43
2023-03-07T05:35:16.292Z,3.43
2023-03-07T05:36:00.668Z,3.42
2023-03-07T05:36:43.545Z,3.35
2023-03-07T05:37:25.497Z,3.41
2023-03-07T05:38:08.112Z,3.42
2023-03-07T05:38:49.872Z,3.23
2023-03-07T05:39:31.892Z,3.31
2023-03-07T05:40:14.132Z,3.44
2023-03-07T05:40:59.288Z,3.35
2023-03-07T05:41:40.875Z,3.41
2023-03-07T05:42:22.572Z,3.43
2023-03-07T05:43:04.880Z,3.25
2023-03-07T05:43:46.934Z,3.43
2023-03-07T05:44:28.513Z,3.45
2023-03-07T05:45:11.570Z,3.39
2023-03-07T05:45:53.464Z,3.47
2023-03-07T05:46:35.484Z,3.47
2023-03-07T05:47:18.369Z,2.74
2023-03-07T05:48:00.064Z,3.48
2023-03-07T05:48:41.708Z,3.38
2023-03-07T05:49:24.871Z,3.48
2023-03-07T05:50:07.824Z,3.49
2023-03-07T05:50:49.604Z,3.35
2023-03-07T05:51:32.719Z,3.46
2023-03-07T05:52:14.313Z,3.36
2023-03-07T05:52:56.038Z,3.50
2023-03-07T05:53:41.453Z,3.49
2023-03-07T05:54:23.282Z,3.50
2023-03-07T05:55:05.334Z,3.37
2023-03-07T05:55:47.739Z,3.56
2023-03-07T05:56:32.311Z,3.51
2023-03-07T05:57:14.054Z,3.57
2023-03-07T05:57:56.060Z,3.59
2023-03-07T05:58:37.886Z,3.49
2023-03-07T05:59:19.713Z,3.57
2023-03-07T06:00:06.303Z,3.35
2023-03-07T06:00:55.662Z,3.60
2023-03-07T06:01:37.672Z,3.63
2023-03-07T06:02:19.364Z,3.61
2023-03-07T06:03:04.330Z,3.64
2023-03-07T06:03:47.687Z,3.63
2023-03-07T06:04:29.432Z,3.63
2023-03-07T06:05:11.126Z,3.60
2023-03-07T06:05:52.809Z,3.59
2023-03-07T06:06:34.487Z,3.60
2023-03-07T06:07:16.174Z,3.63
2023-03-07T06:07:58.062Z,3.60
2023-03-07T06:08:39.704Z,3.63
2023-03-07T06:09:23.504Z,3.61
2023-03-07T06:10:07.014Z,3.02
2023-03-07T06:10:54.184Z,3.46
2023-03-07T06:11:36.213Z,3.78
2023-03-07T06:12:18.488Z,3.93
2023-03-07T06:13:00.271Z,3.69
2023-03-07T06:13:41.876Z,3.95
2023-03-07T06:14:23.971Z,3.98
2023-03-07T06:15:06.366Z,3.93
2023-03-07T06:15:54.272Z,3.96
2023-03-07T06:16:36.809Z,3.86
2023-03-07T06:17:18.566Z,3.85
2023-03-07T06:18:00.278Z,3.69
2023-03-07T06:18:42.044Z,3.83
2023-03-07T06:19:23.723Z,3.65
2023-03-07T06:20:07.357Z,3.51
2023-03-07T06:21:03.296Z,3.93
2023-03-07T06:21:48.490Z,3.93
2023-03-07T06:22:31.830Z,3.86
2023-03-07T06:23:13.528Z,3.88
2023-03-07T06:23:56.284Z,3.71
2023-03-07T06:24:38.062Z,3.60
2023-03-07T06:25:21.623Z,3.75
2023-03-07T06:26:04.880Z,3.83
2023-03-07T06:26:46.745Z,3.85
2023-03-07T06:27:35.772Z,3.88
2023-03-07T06:28:17.678Z,3.91
2023-03-07T06:29:00.178Z,3.97
2023-03-07T06:29:42.236Z,4.06
2023-03-07T06:30:23.871Z,4.06
2023-03-07T06:31:10.318Z,4.03
2023-03-07T06:31:52.141Z,3.84
2023-03-07T06:32:33.911Z,4.00
2023-03-07T06:33:17.487Z,3.87
2023-03-07T06:33:59.254Z,3.88
2023-03-07T06:34:41.701Z,3.71
2023-03-07T06:35:23.374Z,3.81
2023-03-07T06:36:11.242Z,3.79
2023-03-07T06:36:54.685Z,3.73
2023-03-07T06:37:36.359Z,3.73
2023-03-07T06:38:18.361Z,3.89
2023-03-07T06:39:00.345Z,3.94
2023-03-07T06:39:42.802Z,3.97
2023-03-07T06:40:24.523Z,3.93
2023-03-07T06:41:06.358Z,3.95
2023-03-07T06:41:51.125Z,3.91
2023-03-07T06:42:32.871Z,3.86
2023-03-07T06:43:14.890Z,3.49
2023-03-07T06:43:56.656Z,3.83
2023-03-07T06:44:44.438Z,3.74
2023-03-07T06:45:26.372Z,3.79
2023-03-07T06:46:08.250Z,3.78
2023-03-07T06:46:53.719Z,3.68
2023-03-07T06:47:36.205Z,3.81
2023-03-07T06:48:19.675Z,3.94
2023-03-07T06:49:01.309Z,3.97
2023-03-07T06:49:43.222Z,3.96
2023-03-07T06:50:34.661Z,3.98
2023-03-07T06:51:17.102Z,3.96
2023-03-07T06:52:00.295Z,3.76
2023-03-07T06:52:42.140Z,3.95
2023-03-07T06:53:23.766Z,3.96
2023-03-07T06:54:05.910Z,3.61
2023-03-07T06:54:47.735Z,3.89
2023-03-07T06:55:29.393Z,4.06
2023-03-07T06:56:11.081Z,4.01
2023-03-07T06:56:55.069Z,4.07
2023-03-07T06:57:38.294Z,3.93
2023-03-07T06:58:21.160Z,4.09
2023-03-07T06:59:03.287Z,4.09
2023-03-07T06:59:45.295Z,4.05
2023-03-07T07:00:27.515Z,3.98
2023-03-07T07:01:18.915Z,4.09
2023-03-07T07:02:03.654Z,4.07
2023-03-07T07:02:45.776Z,4.07
2023-03-07T07:03:27.564Z,4.07
2023-03-07T07:04:11.452Z,4.06
2023-03-07T07:04:59.536Z,4.06
2023-03-07T07:05:42.463Z,4.08
2023-03-07T07:06:24.146Z,4.04
2023-03-07T07:07:07.395Z,4.08
2023-03-07T07:07:49.882Z,4.10
2023-03-07T07:08:31.616Z,4.15
2023-03-07T07:09:14.169Z,4.19
2023-03-07T07:09:56.167Z,4.15
2023-03-07T07:10:38.150Z,4.22
2023-03-07T07:11:21.307Z,4.25
2023-03-07T07:12:04.945Z,4.23
2023-03-07T07:12:47.626Z,4.27
2023-03-07T07:13:29.239Z,4.33
2023-03-07T07:14:13.879Z,4.29
2023-03-07T07:14:56.851Z,4.20
2023-03-07T07:15:38.702Z,4.03
2023-03-07T07:16:20.829Z,4.27
2023-03-07T07:17:05.488Z,4.34
2023-03-07T07:17:47.458Z,4.35
2023-03-07T07:18:29.124Z,4.36
2023-03-07T07:19:10.837Z,4.36
2023-03-07T07:19:52.461Z,4.06
2023-03-07T07:20:34.233Z,4.39
2023-03-07T07:21:17.117Z,4.38
2023-03-07T07:21:58.739Z,4.40
2023-03-07T07:22:40.409Z,4.39
2023-03-07T07:23:22.313Z,4.38
2023-03-07T07:24:04.754Z,4.38
2023-03-07T07:24:46.953Z,4.25
2023-03-07T07:25:28.589Z,4.39
2023-03-07T07:26:10.346Z,4.30
2023-03-07T07:26:52.026Z,4.37
2023-03-07T07:27:33.697Z,4.41
2023-03-07T07:28:16.102Z,4.42
2023-03-07T07:28:57.806Z,4.15
2023-03-07T07:29:39.456Z,4.44
2023-03-07T07:30:21.912Z,4.45
2023-03-07T07:31:04.059Z,4.32
2023-03-07T07:31:46.498Z,4.37
2023-03-07T07:32:28.731Z,4.43
2023-03-07T07:33:10.671Z,4.47
2023-03-07T07:33:52.542Z,4.08
2023-03-07T07:34:35.063Z,4.48
2023-03-07T07:35:16.901Z,4.47
2023-03-07T07:35:59.626Z,4.47
2023-03-07T07:36:41.657Z,4.37
2023-03-07T07:37:23.984Z,4.54
2023-03-07T07:38:05.611Z,4.56
2023-03-07T07:38:47.282Z,4.55
2023-03-07T07:39:29.083Z,4.59
2023-03-07T07:40:11.712Z,4.64
2023-03-07T07:40:53.495Z,4.65
2023-03-07T07:41:35.204Z,4.66
2023-03-07T07:42:17.199Z,4.52
2023-03-07T07:43:18.643Z,4.67
2023-03-07T07:44:04.814Z,4.28
2023-03-07T07:44:51.279Z,4.70
2023-03-07T07:45:32.978Z,4.54
2023-03-07T07:46:14.797Z,4.74
2023-03-07T07:46:57.232Z,4.74
2023-03-07T07:47:38.970Z,4.78
2023-03-07T07:48:20.886Z,4.77
2023-03-07T07:49:03.026Z,4.76
2023-03-07T07:49:44.926Z,4.76
2023-03-07T07:50:26.760Z,4.67
2023-03-07T07:51:08.459Z,4.71
2023-03-07T07:51:52.162Z,4.66
2023-03-07T07:52:34.324Z,4.72
2023-03-07T07:53:18.913Z,4.48
2023-03-07T07:54:01.580Z,4.72
2023-03-07T07:54:43.216Z,4.73
2023-03-07T07:55:25.388Z,4.58
2023-03-07T07:56:08.237Z,4.63
2023-03-07T07:56:49.930Z,4.62
2023-03-07T07:57:31.988Z,4.30
2023-03-07T07:58:14.034Z,4.55
2023-03-07T07:58:55.868Z,4.73
2023-03-07T07:59:37.630Z,4.78
2023-03-07T08:00:21.501Z,4.80
2023-03-07T08:01:13.342Z,4.57
2023-03-07T08:01:55.031Z,4.66
2023-03-07T08:02:37.236Z,4.87
2023-03-07T08:03:19.009Z,4.88
2023-03-07T08:04:00.646Z,4.89
2023-03-07T08:04:42.962Z,4.52
2023-03-07T08:05:24.647Z,4.95
2023-03-07T08:06:06.443Z,5.00
2023-03-07T08:06:48.135Z,5.09
2023-03-07T08:07:29.774Z,5.15
2023-03-07T08:08:11.426Z,5.20
2023-03-07T08:08:54.029Z,5.19
2023-03-07T08:09:35.756Z,5.13
2023-03-07T08:10:17.945Z,4.99
2023-03-07T08:10:59.559Z,5.14
2023-03-07T08:11:41.476Z,5.19
2023-03-07T08:12:27.845Z,5.23
2023-03-07T08:13:13.695Z,5.27
2023-03-07T08:13:55.986Z,5.28
2023-03-07T08:14:37.596Z,5.27
2023-03-07T08:15:21.513Z,5.26
2023-03-07T08:16:14.903Z,5.15
2023-03-07T08:16:56.760Z,5.26
2023-03-07T08:17:38.394Z,5.32
2023-03-07T08:18:20.115Z,5.31
2023-03-07T08:19:01.856Z,5.14
2023-03-07T08:19:43.499Z,5.21
2023-03-07T08:20:25.696Z,5.33
2023-03-07T08:21:08.593Z,5.45
2023-03-07T08:21:50.257Z,5.09
2023-03-07T08:22:32.830Z,5.50
2023-03-07T08:23:14.411Z,5.54
2023-03-07T08:23:57.082Z,5.47
2023-03-07T08:24:40.922Z,5.54
2023-03-07T08:25:24.500Z,5.46
2023-03-07T08:26:08.229Z,5.47
2023-03-07T08:26:49.917Z,5.56
2023-03-07T08:27:31.825Z,5.54
2023-03-07T08:28:13.443Z,5.54
2023-03-07T08:28:55.325Z,5.46
2023-03-07T08:29:37.021Z,5.53
2023-03-07T08:30:19.385Z,5.65
2023-03-07T08:31:23.806Z,5.57
2023-03-07T08:32:05.958Z,5.34
2023-03-07T08:32:51.383Z,5.61
2023-03-07T08:33:33.007Z,5.66
2023-03-07T08:34:14.647Z,5.64
2023-03-07T08:34:56.429Z,5.67
2023-03-07T08:35:40.089Z,5.69
2023-03-07T08:36:22.098Z,5.67
2023-03-07T08:37:03.912Z,5.55
2023-03-07T08:37:46.217Z,5.77
2023-03-07T08:38:28.073Z,5.78
2023-03-07T08:39:09.688Z,5.80
2023-03-07T08:39:51.812Z,5.84
2023-03-07T08:40:33.488Z,5.84
2023-03-07T08:41:15.177Z,5.85
2023-03-07T08:41:56.877Z,5.90
2023-03-07T08:42:38.550Z,5.90
2023-03-07T08:43:20.489Z,5.94
2023-03-07T08:44:02.086Z,5.93
2023-03-07T08:44:43.811Z,5.92
2023-03-07T08:45:25.676Z,5.98
2023-03-07T08:46:07.442Z,5.98
2023-03-07T08:46:49.213Z,6.07
2023-03-07T08:47:30.910Z,5.87
2023-03-07T08:48:12.470Z,6.09
2023-03-07T08:48:54.158Z,6.11
2023-03-07T08:49:35.848Z,6.09
2023-03-07T08:50:17.624Z,6.05
2023-03-07T08:51:08.514Z,6.08
2023-03-07T08:51:50.287Z,6.09
2023-03-07T08:52:32.808Z,6.11
2023-03-07T08:53:15.441Z,6.11
2023-03-07T08:53:58.969Z,5.98
2023-03-07T08:54:40.826Z,6.16
2023-03-07T08:55:22.479Z,6.20
2023-03-07T08:56:12.142Z,6.26
2023-03-07T08:56:53.948Z,6.24
2023-03-07T08:57:35.600Z,6.20
2023-03-07T08:58:17.241Z,6.20
2023-03-07T08:58:58.935Z,6.11
2023-03-07T08:59:40.608Z,6.11
2023-03-07T09:00:22.636Z,6.10
2023-03-07T09:01:05.801Z,6.17
2023-03-07T09:01:47.437Z,6.18
2023-03-07T09:02:29.197Z,6.18
2023-03-07T09:03:10.857Z,6.20
2023-03-07T09:03:52.534Z,6.16
2023-03-07T09:04:34.234Z,6.22
2023-03-07T09:05:15.914Z,6.21
2023-03-07T09:05:57.628Z,6.24
2023-03-07T09:06:39.316Z,6.24
2023-03-07T09:07:20.969Z,6.34
2023-03-07T09:08:03.341Z,6.33
2023-03-07T09:08:45.080Z,6.23
2023-03-07T09:09:28.840Z,6.24
2023-03-07T09:10:11.691Z,6.28
2023-03-07T09:10:53.694Z,6.29
2023-03-07T09:11:35.488Z,5.88
2023-03-07T09:12:17.190Z,6.36
2023-03-07T09:12:59.177Z,6.40
2023-03-07T09:13:51.413Z,6.39
2023-03-07T09:14:34.220Z,6.17
2023-03-07T09:15:15.877Z,6.36
2023-03-07T09:15:57.615Z,6.02
2023-03-07T09:16:39.375Z,6.37
2023-03-07T09:17:21.239Z,6.42
2023-03-07T09:18:02.832Z,6.51
2023-03-07T09:18:44.447Z,6.54
2023-03-07T09:19:26.078Z,6.56
2023-03-07T09:20:08.864Z,6.51
2023-03-07T09:20:50.517Z,6.41
2023-03-07T09:21:32.997Z,6.47
2023-03-07T09:22:14.692Z,6.48
2023-03-07T09:22:56.524Z,6.31
2023-03-07T09:23:38.173Z,6.26
2023-03-07T09:24:19.810Z,6.26
2023-03-07T09:25:01.503Z,6.31
2023-03-07T09:25:44.407Z,6.36
2023-03-07T09:26:26.135Z,6.30
2023-03-07T09:27:09.140Z,6.39
2023-03-07T09:27:53.371Z,6.43
2023-03-07T09:28:35.128Z,6.41
2023-03-07T09:29:16.902Z,6.42
2023-03-07T09:29:58.488Z,6.47
2023-03-07T09:30:40.112Z,6.33
2023-03-07T09:31:22.388Z,6.23
2023-03-07T09:32:04.366Z,6.42
2023-03-07T09:32:46.124Z,6.55
2023-03-07T09:33:27.777Z,6.52
2023-03-07T09:34:10.022Z,6.39
2023-03-07T09:34:54.221Z,6.53
2023-03-07T09:35:38.297Z,6.27